createdAt,value
2024-02-14T00:01:11.789Z,5.01
2024-02-14T00:03:40.211Z,5.00
2024-02-14T00:06:08.752Z,4.88
2024-02-14T00:08:36.961Z,4.97
2024-02-14T00:11:05.269Z,4.90
2024-02-14T00:13:35.524Z,4.84
2024-02-14T00:16:03.929Z,4.85
2024-02-14T00:18:33.431Z,4.89
2024-02-14T00:21:01.966Z,4.81
2024-02-14T00:23:30.384Z,4.78
2024-02-14T00:25:58.415Z,4.77
2024-02-14T00:28:28.325Z,4.78
2024-02-14T00:30:56.461Z,4.73
2024-02-14T00:33:24.646Z,4.65
2024-02-14T00:35:54.260Z,4.63
2024-02-14T00:38:22.382Z,4.59
2024-02-14T00:40:50.332Z,4.62
2024-02-14T00:43:18.494Z,4.61
2024-02-14T00:45:46.766Z,4.59
2024-02-14T00:48:14.965Z,4.60
2024-02-14T00:50:43.425Z,4.59
2024-02-14T00:53:13.279Z,4.58
2024-02-14T00:55:41.217Z,4.53
2024-02-14T00:58:09.352Z,4.54
2024-02-14T01:00:37.333Z,4.59
2024-02-14T01:03:05.914Z,4.54
2024-02-14T01:05:34.089Z,4.45
2024-02-14T01:08:02.511Z,4.41
2024-02-14T01:10:31.855Z,4.47
2024-02-14T01:12:59.863Z,4.41
2024-02-14T01:15:27.812Z,4.34
2024-02-14T01:17:55.993Z,4.27
2024-02-14T01:20:24.101Z,4.27
2024-02-14T01:22:52.146Z,4.28
2024-02-14T01:25:20.091Z,4.35
2024-02-14T01:27:50.313Z,4.38
2024-02-14T01:30:19.318Z,4.39
2024-02-14T01:32:47.784Z,4.38
2024-02-14T01:35:15.790Z,4.35
2024-02-14T01:37:45.183Z,4.32
2024-02-14T01:40:14.176Z,4.35
2024-02-14T01:42:42.162Z,4.37
2024-02-14T01:45:12.046Z,4.36
2024-02-14T01:47:42.754Z,4.28
2024-02-14T01:50:12.933Z,4.22
2024-02-14T01:52:42.307Z,4.22
2024-02-14T01:55:10.959Z,4.29
2024-02-14T01:57:41.471Z,4.30
2024-02-14T02:00:16.664Z,4.25
2024-02-14T02:02:45.074Z,4.24
2024-02-14T02:05:18.178Z,4.24
2024-02-14T02:07:49.389Z,4.26
2024-02-14T02:10:18.036Z,4.25
2024-02-14T02:12:46.105Z,4.22
2024-02-14T02:15:15.737Z,4.16
2024-02-14T02:17:47.049Z,4.13
2024-02-14T02:20:16.625Z,4.13
2024-02-14T02:22:49.371Z,4.12
2024-02-14T02:25:17.458Z,4.12
2024-02-14T02:27:45.690Z,4.17
2024-02-14T02:30:14.989Z,4.15
2024-02-14T02:32:44.334Z,4.13
2024-02-14T02:35:12.504Z,4.15
2024-02-14T02:37:40.478Z,4.08
2024-02-14T02:40:12.023Z,4.00
2024-02-14T02:42:40.180Z,3.93
2024-02-14T02:45:09.264Z,3.94
2024-02-14T02:47:37.425Z,3.96
2024-02-14T02:50:07.140Z,3.93
2024-02-14T02:52:35.122Z,3.95
2024-02-14T02:55:03.503Z,4.00
2024-02-14T02:57:33.442Z,4.00
2024-02-14T03:00:01.687Z,3.94
2024-02-14T03:02:29.818Z,3.93
2024-02-14T03:04:58.419Z,3.96
2024-02-14T03:07:26.424Z,3.95
2024-02-14T03:09:54.421Z,3.95
2024-02-14T03:12:24.082Z,3.90
2024-02-14T03:14:53.505Z,3.81
2024-02-14T03:17:21.553Z,3.76
2024-02-14T03:19:52.962Z,3.69
2024-02-14T03:22:21.082Z,3.62
2024-02-14T03:24:49.960Z,3.61
2024-02-14T03:27:18.440Z,3.55
2024-02-14T03:29:48.664Z,3.48
2024-02-14T03:32:18.460Z,3.45
2024-02-14T03:34:46.470Z,3.38
2024-02-14T03:37:14.496Z,3.34
2024-02-14T03:39:42.548Z,3.34
2024-02-14T03:42:10.749Z,3.31
2024-02-14T03:44:39.554Z,3.32
2024-02-14T03:47:07.686Z,3.32
2024-02-14T03:49:37.248Z,3.22
2024-02-14T03:52:11.033Z,3.41
2024-02-14T03:54:39.297Z,3.46
2024-02-14T03:57:10.037Z,3.46
2024-02-14T03:59:40.333Z,3.48
2024-02-14T04:02:11.262Z,3.39
2024-02-14T04:04:41.449Z,3.38
2024-02-14T04:07:10.785Z,3.39
2024-02-14T04:09:39.154Z,3.37
2024-02-14T04:12:08.120Z,3.36
2024-02-14T04:14:36.414Z,3.30
2024-02-14T04:17:04.613Z,3.30
2024-02-14T04:19:32.750Z,3.27
2024-02-14T04:22:02.254Z,3.28
2024-02-14T04:24:30.846Z,3.24
2024-02-14T04:26:58.953Z,3.31
2024-02-14T04:29:28.016Z,3.31
2024-02-14T04:31:56.247Z,3.28
2024-02-14T04:34:24.259Z,3.21
2024-02-14T04:36:52.573Z,3.16
2024-02-14T04:39:21.901Z,3.12
2024-02-14T04:41:57.353Z,3.08
2024-02-14T04:44:30.246Z,3.03
2024-02-14T04:46:59.498Z,3.01
2024-02-14T04:49:27.938Z,3.05
2024-02-14T04:51:56.718Z,3.05
2024-02-14T04:54:26.309Z,3.09
2024-02-14T04:56:57.245Z,3.05
2024-02-14T04:59:27.815Z,3.07
2024-02-14T05:01:57.515Z,3.12
2024-02-14T05:04:25.766Z,3.13
2024-02-14T05:06:57.251Z,3.09
2024-02-14T05:09:28.546Z,3.84
2024-02-14T05:11:56.566Z,3.39
2024-02-14T05:14:24.804Z,3.28
2024-02-14T05:16:53.009Z,3.23
2024-02-14T05:19:23.136Z,3.13
2024-02-14T05:21:51.462Z,3.12
2024-02-14T05:24:19.928Z,3.10
2024-02-14T05:26:49.657Z,3.01
2024-02-14T05:29:19.959Z,2.98
2024-02-14T05:31:49.952Z,2.92
2024-02-14T05:34:18.387Z,2.78
2024-02-14T05:36:48.057Z,2.84
2024-02-14T05:39:17.283Z,2.79
2024-02-14T05:41:45.835Z,2.77
2024-02-14T05:44:15.288Z,2.81
2024-02-14T05:46:43.578Z,2.83
2024-02-14T05:49:11.941Z,2.87
2024-02-14T05:51:39.979Z,2.89
2024-02-14T05:54:08.197Z,2.85
2024-02-14T05:56:36.243Z,2.82
2024-02-14T05:59:04.527Z,2.80
2024-02-14T06:01:33.957Z,2.79
2024-02-14T06:04:02.376Z,2.79
2024-02-14T06:06:30.418Z,2.82
2024-02-14T06:08:59.213Z,2.89
2024-02-14T06:11:27.716Z,2.90
2024-02-14T06:13:55.930Z,2.80
2024-02-14T06:16:23.920Z,2.71
2024-02-14T06:18:53.597Z,2.71
2024-02-14T06:21:21.738Z,2.65
2024-02-14T06:23:49.843Z,2.70
2024-02-14T06:26:18.944Z,2.71
2024-02-14T06:28:47.381Z,2.66
2024-02-14T06:31:15.416Z,2.67
2024-02-14T06:33:45.295Z,2.63
2024-02-14T06:36:14.797Z,2.66
2024-02-14T06:38:42.905Z,2.69
2024-02-14T06:41:10.893Z,2.66
2024-02-14T06:43:40.522Z,2.65
2024-02-14T06:46:08.502Z,2.63
2024-02-14T06:48:37.035Z,2.67
2024-02-14T06:51:05.517Z,2.65
2024-02-14T06:53:35.152Z,2.64
2024-02-14T06:56:03.221Z,2.60
2024-02-14T06:58:31.346Z,2.62
2024-02-14T07:00:59.477Z,2.70
2024-02-14T07:03:27.664Z,2.78
2024-02-14T07:05:55.873Z,2.77
2024-02-14T07:08:25.196Z,2.77
2024-02-14T07:10:54.753Z,2.82
2024-02-14T07:13:22.859Z,2.85
2024-02-14T07:15:51.113Z,2.87
2024-02-14T07:18:19.420Z,2.89
2024-02-14T07:20:47.558Z,2.90
2024-02-14T07:23:15.547Z,2.91
2024-02-14T07:25:43.589Z,2.93
2024-02-14T07:28:13.306Z,3.03
2024-02-14T07:30:41.658Z,3.14
2024-02-14T07:33:10.757Z,3.24
2024-02-14T07:35:39.480Z,3.34
2024-02-14T07:38:07.615Z,3.48
2024-02-14T07:40:35.590Z,3.58
2024-02-14T07:43:03.638Z,3.68
2024-02-14T07:45:33.125Z,3.86
2024-02-14T07:48:01.271Z,4.07
2024-02-14T07:50:29.855Z,4.40
2024-02-14T07:52:57.819Z,4.80
2024-02-14T07:55:25.879Z,5.28
2024-02-14T07:57:54.838Z,5.69
2024-02-14T08:00:24.699Z,6.16
2024-02-14T08:02:54.120Z,6.68
2024-02-14T08:05:22.186Z,7.12
2024-02-14T08:07:50.315Z,7.50
2024-02-14T08:10:18.407Z,7.95
2024-02-14T08:12:46.466Z,8.46
2024-02-14T08:15:14.581Z,8.99
2024-02-14T08:17:46.600Z,9.46
2024-02-14T08:20:17.085Z,9.95
2024-02-14T08:22:45.164Z,10.31
2024-02-14T08:25:14.042Z,10.64
2024-02-14T08:27:42.013Z,10.77
2024-02-14T08:30:10.724Z,10.81
2024-02-14T08:32:38.984Z,10.83
2024-02-14T08:35:08.726Z,10.77
2024-02-14T08:37:39.419Z,10.68
2024-02-14T08:40:08.514Z,10.73
2024-02-14T08:42:36.493Z,10.71
2024-02-14T08:45:04.793Z,10.73
2024-02-14T08:47:32.954Z,10.67
2024-02-14T08:50:01.058Z,10.69
2024-02-14T08:52:29.658Z,10.69
2024-02-14T08:54:59.088Z,10.73
2024-02-14T08:57:27.529Z,10.71
2024-02-14T08:59:56.341Z,10.78
2024-02-14T09:02:26.603Z,10.89
2024-02-14T09:04:54.672Z,10.92
2024-02-14T09:07:22.692Z,10.95
2024-02-14T09:09:50.784Z,10.94
2024-02-14T09:12:20.195Z,11.00
2024-02-14T09:14:48.244Z,11.06
2024-02-14T09:17:16.610Z,11.06
2024-02-14T09:19:44.775Z,11.13
2024-02-14T09:22:12.743Z,11.19
2024-02-14T09:24:40.795Z,11.26
2024-02-14T09:27:08.793Z,11.29
2024-02-14T09:29:39.568Z,11.34
2024-02-14T09:32:07.962Z,11.38
2024-02-14T09:34:36.779Z,11.32
2024-02-14T09:37:06.851Z,11.48
2024-02-14T09:39:37.889Z,11.55
2024-02-14T09:42:12.029Z,11.61
2024-02-14T09:44:42.565Z,11.67
2024-02-14T09:47:11.534Z,11.68
2024-02-14T09:49:42.109Z,11.76
2024-02-14T09:52:13.936Z,11.84
2024-02-14T09:54:42.643Z,11.92
2024-02-14T09:57:11.356Z,11.96
2024-02-14T09:59:41.447Z,12.05
2024-02-14T10:02:11.406Z,12.14
2024-02-14T10:04:40.321Z,12.25
2024-02-14T10:07:09.845Z,12.31
2024-02-14T10:09:43.438Z,12.40
2024-02-14T10:12:12.150Z,12.49
2024-02-14T10:14:41.736Z,12.60
2024-02-14T10:17:11.095Z,12.69
2024-02-14T10:19:39.157Z,12.79
2024-02-14T10:22:10.081Z,12.89
2024-02-14T10:24:38.046Z,12.97
2024-02-14T10:27:10.330Z,13.08
2024-02-14T10:29:38.585Z,13.13
2024-02-14T10:32:08.265Z,13.27
2024-02-14T10:34:41.118Z,13.36
2024-02-14T10:37:10.593Z,13.46
2024-02-14T10:39:40.995Z,13.57
2024-02-14T10:42:09.100Z,13.67
2024-02-14T10:44:38.681Z,13.77
2024-02-14T10:47:12.976Z,13.91
2024-02-14T10:49:44.804Z,14.00
2024-02-14T10:52:13.656Z,14.13
2024-02-14T10:54:41.865Z,14.30
2024-02-14T10:57:13.004Z,14.40
2024-02-14T10:59:47.173Z,14.53
2024-02-14T11:02:17.564Z,14.64
2024-02-14T11:04:45.946Z,14.78
2024-02-14T11:07:14.421Z,14.90
2024-02-14T11:09:43.283Z,15.04
2024-02-14T11:12:13.160Z,15.12
2024-02-14T11:14:46.438Z,15.32
2024-02-14T11:17:16.238Z,15.44
2024-02-14T11:19:44.513Z,15.59
2024-02-14T11:22:14.365Z,15.73
2024-02-14T11:24:42.658Z,15.95
2024-02-14T11:27:29.308Z,16.16
2024-02-14T11:30:02.639Z,16.31
2024-02-14T11:32:34.089Z,16.48
2024-02-14T11:35:02.200Z,16.60
2024-02-14T11:37:30.884Z,16.70
2024-02-14T11:39:59.537Z,16.86
2024-02-14T11:42:28.639Z,16.97
2024-02-14T11:44:57.736Z,17.10
2024-02-14T11:47:26.579Z,17.18
2024-02-14T11:49:56.086Z,17.30
2024-02-14T11:52:24.880Z,17.41
2024-02-14T11:54:52.894Z,17.50
2024-02-14T11:57:21.065Z,17.58
2024-02-14T11:59:54.194Z,17.64
2024-02-14T12:02:23.315Z,17.65
2024-02-14T12:04:55.062Z,17.72
2024-02-14T12:07:25.852Z,17.83
2024-02-14T12:09:54.242Z,17.90
2024-02-14T12:12:24.122Z,17.97
2024-02-14T12:14:54.298Z,18.03
2024-02-14T12:17:23.328Z,18.06
2024-02-14T12:19:53.202Z,18.09
2024-02-14T12:22:22.659Z,18.12
2024-02-14T12:24:53.473Z,18.18
2024-02-14T12:27:22.375Z,18.22
2024-02-14T12:29:51.054Z,18.24
2024-02-14T12:32:19.555Z,18.30
2024-02-14T12:34:47.721Z,18.33
2024-02-14T12:37:16.502Z,18.37
2024-02-14T12:39:44.503Z,18.41
2024-02-14T12:42:14.095Z,18.43
2024-02-14T12:44:42.274Z,18.47
2024-02-14T12:47:10.335Z,18.49
2024-02-14T12:49:38.549Z,18.52
2024-02-14T12:52:06.832Z,18.53
2024-02-14T12:54:35.130Z,18.59
2024-02-14T12:57:03.526Z,18.61
2024-02-14T12:59:33.101Z,18.65
2024-02-14T13:02:01.951Z,18.66
2024-02-14T13:04:30.007Z,18.65
2024-02-14T13:06:58.005Z,18.70
2024-02-14T13:09:26.153Z,18.74
2024-02-14T13:11:54.715Z,18.79
2024-02-14T13:14:22.722Z,18.80
2024-02-14T13:16:52.319Z,18.85
2024-02-14T13:19:20.824Z,18.83
2024-02-14T13:21:49.494Z,18.82
2024-02-14T13:24:18.414Z,18.83
2024-02-14T13:26:46.667Z,18.83
2024-02-14T13:29:14.979Z,18.80
2024-02-14T13:31:43.248Z,18.82
2024-02-14T13:34:13.220Z,18.83
2024-02-14T13:36:41.429Z,18.78
2024-02-14T13:39:10.017Z,18.79
2024-02-14T13:41:39.097Z,18.70
2024-02-14T13:44:08.569Z,18.66
2024-02-14T13:46:36.725Z,18.63
2024-02-14T13:49:05.066Z,18.63
2024-02-14T13:51:34.438Z,18.60
2024-02-14T13:54:02.506Z,18.56
2024-02-14T13:56:30.482Z,18.56
2024-02-14T13:58:58.692Z,18.54
2024-02-14T14:01:27.644Z,18.56
2024-02-14T14:03:57.019Z,18.59
2024-02-14T14:06:25.919Z,18.63
2024-02-14T14:08:56.011Z,18.66
2024-02-14T14:11:24.082Z,18.70
2024-02-14T14:13:52.156Z,18.75
2024-02-14T14:16:22.781Z,18.79
2024-02-14T14:18:54.581Z,18.81
2024-02-14T14:21:23.320Z,18.82
2024-02-14T14:23:51.460Z,18.84
2024-02-14T14:26:21.056Z,18.83
2024-02-14T14:28:49.066Z,18.86
2024-02-14T14:31:17.076Z,18.89
2024-02-14T14:33:45.254Z,18.94
2024-02-14T14:36:13.304Z,18.94
2024-02-14T14:38:42.038Z,18.92
2024-02-14T14:41:11.496Z,18.90
2024-02-14T14:43:41.408Z,18.92
2024-02-14T14:46:09.371Z,18.88
2024-02-14T14:48:37.500Z,18.90
2024-02-14T14:51:06.048Z,18.87
2024-02-14T14:53:35.345Z,18.85
2024-02-14T14:56:03.922Z,18.85
2024-02-14T14:58:34.672Z,18.81
2024-02-14T15:01:05.946Z,18.79
2024-02-14T15:03:34.333Z,18.74
2024-02-14T15:06:02.504Z,18.71
2024-02-14T15:08:30.845Z,18.65
2024-02-14T15:10:59.748Z,18.62
2024-02-14T15:13:28.854Z,18.60
2024-02-14T15:15:58.941Z,18.58
2024-02-14T15:18:28.776Z,18.59
2024-02-14T15:20:56.808Z,18.54
2024-02-14T15:23:24.740Z,18.49
2024-02-14T15:25:53.158Z,18.46
2024-02-14T15:28:27.517Z,18.39
2024-02-14T15:31:13.148Z,18.37
2024-02-14T15:33:42.913Z,18.32
2024-02-14T15:36:12.350Z,18.30
2024-02-14T15:38:40.498Z,18.28
2024-02-14T15:41:08.607Z,18.27
2024-02-14T15:43:37.786Z,18.24
2024-02-14T15:46:06.062Z,18.17
2024-02-14T15:48:34.575Z,18.12
2024-02-14T15:51:04.318Z,18.07
2024-02-14T15:53:33.066Z,18.01
2024-02-14T15:56:02.869Z,17.94
2024-02-14T15:58:31.406Z,17.88
2024-02-14T16:00:59.546Z,17.83
2024-02-14T16:03:28.034Z,17.78
2024-02-14T16:05:56.393Z,17.70
2024-02-14T16:08:28.624Z,17.65
2024-02-14T16:10:58.110Z,17.57
2024-02-14T16:13:26.151Z,17.50
2024-02-14T16:15:54.785Z,17.45
2024-02-14T16:18:22.948Z,17.38
2024-02-14T16:20:52.028Z,17.30
2024-02-14T16:23:20.321Z,17.22
2024-02-14T16:25:50.525Z,17.16
2024-02-14T16:28:18.641Z,17.11
2024-02-14T16:30:47.253Z,17.04
2024-02-14T16:33:15.361Z,16.98
2024-02-14T16:35:43.437Z,16.94
2024-02-14T16:38:11.484Z,16.87
2024-02-14T16:40:40.924Z,16.79
2024-02-14T16:43:13.304Z,16.72
2024-02-14T16:45:41.611Z,16.58
2024-02-14T16:48:12.277Z,16.49
2024-02-14T16:50:40.493Z,16.37
2024-02-14T16:53:08.515Z,16.27
2024-02-14T16:55:38.065Z,16.16
2024-02-14T16:58:06.833Z,16.08
2024-02-14T17:00:36.303Z,15.99
2024-02-14T17:03:11.428Z,15.89
2024-02-14T17:05:44.199Z,15.78
2024-02-14T17:08:12.590Z,15.66
2024-02-14T17:10:41.165Z,15.55
2024-02-14T17:13:10.021Z,15.44
2024-02-14T17:15:39.776Z,15.30
2024-02-14T17:18:09.618Z,15.13
2024-02-14T17:20:37.787Z,14.97
2024-02-14T17:23:06.167Z,14.82
2024-02-14T17:25:34.176Z,14.68
2024-02-14T17:28:02.183Z,14.55
2024-02-14T17:30:30.527Z,14.45
2024-02-14T17:33:02.246Z,14.28
2024-02-14T17:35:30.546Z,14.03
2024-02-14T17:37:58.657Z,13.89
2024-02-14T17:40:26.691Z,13.75
2024-02-14T17:42:54.708Z,13.58
2024-02-14T17:45:22.815Z,13.42
2024-02-14T17:47:51.020Z,13.27
2024-02-14T17:50:20.743Z,13.15
2024-02-14T17:52:49.691Z,12.97
2024-02-14T17:55:19.417Z,12.76
2024-02-14T17:57:48.191Z,12.59
2024-02-14T18:00:16.837Z,12.48
2024-02-14T18:02:44.983Z,12.34
2024-02-14T18:05:13.370Z,12.23
2024-02-14T18:07:42.804Z,12.09
2024-02-14T18:10:11.011Z,11.97
2024-02-14T18:12:39.179Z,11.91
2024-02-14T18:15:08.853Z,11.79
2024-02-14T18:17:37.218Z,11.62
2024-02-14T18:20:06.177Z,11.59
2024-02-14T18:22:35.240Z,11.46
2024-02-14T18:25:05.831Z,11.32
2024-02-14T18:27:33.941Z,11.27
2024-02-14T18:30:02.372Z,11.29
2024-02-14T18:32:30.477Z,11.30
2024-02-14T18:34:58.673Z,11.14
2024-02-14T18:37:26.950Z,11.14
2024-02-14T18:39:58.213Z,11.15
2024-02-14T18:42:27.972Z,10.99
2024-02-14T18:44:55.978Z,10.82
2024-02-14T18:47:24.739Z,10.73
2024-02-14T18:49:52.856Z,10.60
2024-02-14T18:52:21.101Z,10.61
2024-02-14T18:54:49.138Z,10.70
2024-02-14T18:57:17.192Z,10.63
2024-02-14T18:59:46.645Z,10.55
2024-02-14T19:02:15.159Z,10.47
2024-02-14T19:04:43.274Z,10.40
2024-02-14T19:07:12.545Z,10.30
2024-02-14T19:09:41.110Z,10.22
2024-02-14T19:12:09.567Z,10.18
2024-02-14T19:14:39.298Z,10.11
2024-02-14T19:17:08.811Z,9.99
2024-02-14T19:19:37.844Z,9.85
2024-02-14T19:22:07.594Z,9.73
2024-02-14T19:24:35.782Z,9.63
2024-02-14T19:27:03.931Z,9.49
2024-02-14T19:29:32.014Z,9.40
2024-02-14T19:32:00.254Z,9.45
2024-02-14T19:34:30.119Z,9.49
2024-02-14T19:36:58.206Z,9.41
2024-02-14T19:39:26.361Z,10.28
2024-02-14T19:41:54.746Z,9.65
2024-02-14T19:44:22.792Z,9.29
2024-02-14T19:46:51.587Z,9.08
2024-02-14T19:49:22.595Z,9.13
2024-02-14T19:51:53.736Z,9.12
2024-02-14T19:54:22.086Z,9.11
2024-02-14T19:56:50.776Z,9.12
2024-02-14T19:59:20.257Z,9.17
2024-02-14T20:01:48.258Z,9.12
2024-02-14T20:04:16.384Z,9.04
2024-02-14T20:06:44.411Z,8.94
2024-02-14T20:09:15.420Z,8.88
2024-02-14T20:11:46.077Z,8.79
2024-02-14T20:14:14.282Z,8.76
2024-02-14T20:16:42.748Z,8.75
2024-02-14T20:19:11.502Z,8.72
2024-02-14T20:21:39.726Z,8.60
2024-02-14T20:24:10.699Z,8.53
2024-02-14T20:26:40.344Z,8.48
2024-02-14T20:29:08.513Z,8.35
2024-02-14T20:31:37.147Z,8.19
2024-02-14T20:34:06.367Z,8.07
2024-02-14T20:36:38.310Z,7.99
2024-02-14T20:39:08.927Z,7.90
2024-02-14T20:41:37.865Z,7.78
2024-02-14T20:44:07.553Z,7.69
2024-02-14T20:46:36.692Z,7.60
2024-02-14T20:49:06.043Z,7.54
2024-02-14T20:51:36.406Z,7.40
2024-02-14T20:54:06.227Z,7.33
2024-02-14T20:56:34.537Z,7.27
2024-02-14T20:59:10.849Z,7.26
2024-02-14T21:01:48.191Z,7.27
2024-02-14T21:04:16.211Z,7.25
2024-02-14T21:06:44.291Z,7.23
2024-02-14T21:09:12.379Z,7.21
2024-02-14T21:11:41.256Z,7.14
2024-02-14T21:14:09.266Z,7.04
2024-02-14T21:16:37.515Z,6.97
2024-02-14T21:19:07.250Z,6.90
2024-02-14T21:21:36.791Z,6.78
2024-02-14T21:24:05.143Z,6.71
2024-02-14T21:26:33.259Z,6.64
2024-02-14T21:29:01.243Z,6.57
2024-02-14T21:31:30.686Z,6.52
2024-02-14T21:33:59.035Z,6.49
2024-02-14T21:36:28.488Z,6.48
2024-02-14T21:38:56.797Z,6.42
2024-02-14T21:41:26.469Z,6.37
2024-02-14T21:43:54.584Z,6.35
2024-02-14T21:46:24.432Z,6.35
2024-02-14T21:48:53.376Z,6.31
2024-02-14T21:51:21.889Z,6.27
2024-02-14T21:53:52.115Z,6.26
2024-02-14T21:56:20.268Z,6.21
2024-02-14T21:58:48.305Z,6.22
2024-02-14T22:01:16.499Z,6.29
2024-02-14T22:03:44.463Z,6.35
2024-02-14T22:06:12.633Z,6.38
2024-02-14T22:08:40.708Z,6.30
2024-02-14T22:11:12.130Z,6.19
2024-02-14T22:13:40.114Z,6.10
2024-02-14T22:16:10.124Z,6.09
2024-02-14T22:18:39.147Z,6.03
2024-02-14T22:21:07.788Z,6.00
2024-02-14T22:23:35.828Z,5.95
2024-02-14T22:26:04.697Z,5.89
2024-02-14T22:28:36.493Z,5.86
2024-02-14T22:31:04.583Z,5.89
2024-02-14T22:33:32.732Z,5.94
2024-02-14T22:36:01.520Z,5.95
2024-02-14T22:38:29.658Z,6.02
2024-02-14T22:40:57.716Z,6.04
2024-02-14T22:43:25.739Z,5.96
2024-02-14T22:45:55.047Z,5.91
2024-02-14T22:48:23.443Z,5.81
2024-02-14T22:50:51.986Z,5.75
2024-02-14T22:53:19.978Z,5.71
2024-02-14T22:55:49.531Z,5.68
2024-02-14T22:58:17.562Z,5.61
2024-02-14T23:00:45.571Z,5.60
2024-02-14T23:03:16.269Z,5.69
2024-02-14T23:05:45.340Z,5.58
2024-02-14T23:08:13.501Z,5.64
2024-02-14T23:10:41.602Z,5.59
2024-02-14T23:13:09.899Z,5.62
2024-02-14T23:15:38.146Z,5.66
2024-02-14T23:18:07.300Z,5.65
2024-02-14T23:20:39.311Z,5.69
2024-02-14T23:23:07.735Z,5.63
2024-02-14T23:25:35.751Z,5.58
2024-02-14T23:28:03.927Z,5.52
2024-02-14T23:30:31.935Z,5.48
2024-02-14T23:33:00.219Z,5.47
2024-02-14T23:35:28.810Z,5.43
2024-02-14T23:37:58.206Z,5.47
2024-02-14T23:40:26.197Z,5.43
2024-02-14T23:43:00.484Z,5.42
2024-02-14T23:45:28.749Z,5.44
2024-02-14T23:47:56.858Z,5.50
2024-02-14T23:50:26.295Z,5.53
2024-02-14T23:52:54.415Z,5.42
2024-02-14T23:55:24.033Z,5.30
2024-02-14T23:57:52.761Z,5.30
